ENY3627 KDCA-KLIT
Flight info
| Callsign | ENY3627 |
|---|---|
| Flight time | 2h 22m |
| Altitude | 36000 |
| Route | REBLL5 OTTTO Q80 FAREV RAMRD Q68 LITTR |
| Aircraft | E75L/M-SDE3GILORVW/S |
Departure
| Time | 2026-05-06 02:09 |
|---|---|
| Airport | Ronald Reagan Washington National Airport (KDCA) |
Arrival
| Time | 2026-05-06 04:31 |
|---|---|
| Airport | Bill & Hillary Clinton National Airport/Adams Field (KLIT) |
| Time | Latitude | Longitude | Altitude | Speed | Heading |
|---|---|---|---|---|---|
| 2026-05-06 01:44 | 38.85746 | -77.04288 | 22 ft | 0 kts | 339° |
| 2026-05-06 01:57 | 38.85730 | -77.04282 | 24 ft | 4 kts | 354° |
| 2026-05-06 01:57 | 38.85707 | -77.04291 | 22 ft | 4 kts | 48° |
| 2026-05-06 01:58 | 38.85700 | -77.04307 | 22 ft | 0 kts | 72° |
| 2026-05-06 02:00 | 38.85700 | -77.04306 | 22 ft | 0 kts | 72° |
| 2026-05-06 02:00 | 38.85700 | -77.04305 | 22 ft | 1 kts | 72° |
| 2026-05-06 02:01 | 38.85705 | -77.04287 | 22 ft | 4 kts | 72° |
| 2026-05-06 02:01 | 38.85716 | -77.04243 | 23 ft | 7 kts | 72° |
| 2026-05-06 02:01 | 38.85733 | -77.04175 | 22 ft | 9 kts | 68° |
| 2026-05-06 02:01 | 38.85783 | -77.04158 | 22 ft | 9 kts | 324° |
| 2026-05-06 02:02 | 38.85838 | -77.04213 | 22 ft | 11 kts | 323° |
| 2026-05-06 02:02 | 38.85909 | -77.04281 | 22 ft | 14 kts | 323° |
| 2026-05-06 02:02 | 38.85993 | -77.04363 | 21 ft | 16 kts | 322° |
| 2026-05-06 02:02 | 38.86052 | -77.04398 | 21 ft | 2 kts | 6° |
| 2026-05-06 02:03 | 38.86053 | -77.04398 | 21 ft | 0 kts | 7° |
| 2026-05-06 02:07 | 38.86060 | -77.04395 | 24 ft | 3 kts | 20° |
| 2026-05-06 02:07 | 38.86091 | -77.04351 | 20 ft | 0 kts | 53° |
| 2026-05-06 02:07 | 38.86102 | -77.04334 | 20 ft | 4 kts | 53° |
| 2026-05-06 02:07 | 38.86106 | -77.04322 | 21 ft | 0 kts | 89° |
| 2026-05-06 02:08 | 38.86104 | -77.04317 | 21 ft | 0 kts | 123° |
| 2026-05-06 02:08 | 38.86100 | -77.04312 | 20 ft | 0 kts | 143° |
| 2026-05-06 02:08 | 38.86095 | -77.04308 | 20 ft | 12 kts | 143° |
| 2026-05-06 02:09 | 38.85791 | -77.04014 | 24 ft | 95 kts | 142° |
| 2026-05-06 02:09 | 38.85095 | -77.03332 | 240 ft | 140 kts | 148° |
| 2026-05-06 02:09 | 38.84540 | -77.02804 | 827 ft | 139 kts | 155° |
| 2026-05-06 02:09 | 38.83927 | -77.02574 | 1325 ft | 130 kts | 177° |
| 2026-05-06 02:10 | 38.83031 | -77.02529 | 1966 ft | 128 kts | 185° |
| 2026-05-06 02:10 | 38.82158 | -77.02599 | 2560 ft | 128 kts | 191° |
| 2026-05-06 02:10 | 38.81225 | -77.02670 | 3032 ft | 138 kts | 193° |
| 2026-05-06 02:10 | 38.80241 | -77.02795 | 3524 ft | 147 kts | 192° |
| 2026-05-06 02:11 | 38.79193 | -77.02914 | 3925 ft | 166 kts | 192° |
| 2026-05-06 02:11 | 38.78025 | -77.03071 | 4388 ft | 186 kts | 192° |
| 2026-05-06 02:11 | 38.76728 | -77.03368 | 4981 ft | 199 kts | 205° |
| 2026-05-06 02:11 | 38.75607 | -77.04273 | 5850 ft | 197 kts | 225° |
| 2026-05-06 02:12 | 38.74853 | -77.05681 | 6647 ft | 201 kts | 248° |
| 2026-05-06 02:12 | 38.74577 | -77.07470 | 7314 ft | 212 kts | 258° |
| 2026-05-06 02:12 | 38.74463 | -77.09437 | 7717 ft | 231 kts | 262° |
| 2026-05-06 02:12 | 38.74306 | -77.11550 | 8130 ft | 246 kts | 260° |
| 2026-05-06 02:13 | 38.74135 | -77.13790 | 8628 ft | 258 kts | 261° |
| 2026-05-06 02:13 | 38.73934 | -77.16099 | 9311 ft | 263 kts | 262° |
| 2026-05-06 02:13 | 38.73761 | -77.18448 | 9990 ft | 267 kts | 263° |
| 2026-05-06 02:13 | 38.73624 | -77.20874 | 10316 ft | 283 kts | 264° |
| 2026-05-06 02:14 | 38.73499 | -77.23447 | 10508 ft | 302 kts | 265° |
| 2026-05-06 02:14 | 38.73746 | -77.26188 | 10760 ft | 317 kts | 283° |
| 2026-05-06 02:14 | 38.74324 | -77.28898 | 11314 ft | 320 kts | 282° |
| 2026-05-06 02:14 | 38.74775 | -77.31674 | 11980 ft | 320 kts | 276° |
| 2026-05-06 02:15 | 38.75046 | -77.34478 | 12679 ft | 320 kts | 274° |
| 2026-05-06 02:15 | 38.75303 | -77.37244 | 13427 ft | 322 kts | 275° |
| 2026-05-06 02:15 | 38.75605 | -77.40055 | 14097 ft | 325 kts | 275° |
| 2026-05-06 02:15 | 38.75922 | -77.42733 | 14741 ft | 327 kts | 276° |
| 2026-05-06 02:16 | 38.76268 | -77.45572 | 15383 ft | 330 kts | 276° |
| 2026-05-06 02:16 | 38.76624 | -77.48456 | 16038 ft | 333 kts | 275° |
| 2026-05-06 02:16 | 38.76987 | -77.51399 | 16693 ft | 331 kts | 275° |
| 2026-05-06 02:16 | 38.77349 | -77.54335 | 17010 ft | 336 kts | 275° |
| 2026-05-06 02:17 | 38.77711 | -77.57282 | 17027 ft | 338 kts | 275° |
| 2026-05-06 02:17 | 38.78054 | -77.60072 | 17041 ft | 339 kts | 275° |
| 2026-05-06 02:17 | 38.78419 | -77.63058 | 17037 ft | 339 kts | 275° |
| 2026-05-06 02:17 | 38.78782 | -77.66046 | 17040 ft | 339 kts | 275° |
| 2026-05-06 02:18 | 38.79138 | -77.68992 | 17033 ft | 339 kts | 275° |
| 2026-05-06 02:18 | 38.79498 | -77.71976 | 17031 ft | 339 kts | 275° |
| 2026-05-06 02:18 | 38.79859 | -77.74971 | 17024 ft | 339 kts | 275° |
| 2026-05-06 02:18 | 38.80211 | -77.77897 | 17185 ft | 336 kts | 275° |
| 2026-05-06 02:19 | 38.80566 | -77.80843 | 18019 ft | 335 kts | 275° |
| 2026-05-06 02:19 | 38.80923 | -77.83816 | 18578 ft | 339 kts | 275° |
| 2026-05-06 02:19 | 38.81270 | -77.86724 | 19111 ft | 344 kts | 275° |
| 2026-05-06 02:19 | 38.81614 | -77.89615 | 19649 ft | 349 kts | 276° |
| 2026-05-06 02:20 | 38.82347 | -77.95777 | 20864 ft | 357 kts | 276° |
| 2026-05-06 02:20 | 38.82719 | -77.98932 | 21506 ft | 359 kts | 276° |
| 2026-05-06 02:20 | 38.83095 | -78.02114 | 22097 ft | 362 kts | 277° |
| 2026-05-06 02:21 | 38.83468 | -78.05302 | 22653 ft | 365 kts | 277° |
| 2026-05-06 02:21 | 38.83844 | -78.08517 | 23211 ft | 368 kts | 277° |
| 2026-05-06 02:21 | 38.84218 | -78.11723 | 23706 ft | 371 kts | 277° |
| 2026-05-06 02:21 | 38.84597 | -78.14991 | 24152 ft | 373 kts | 277° |
| 2026-05-06 02:22 | 38.84979 | -78.18280 | 24672 ft | 374 kts | 277° |
| 2026-05-06 02:22 | 38.85217 | -78.21653 | 25204 ft | 373 kts | 270° |
| 2026-05-06 02:22 | 38.85206 | -78.24878 | 26131 ft | 363 kts | 270° |
| 2026-05-06 02:22 | 38.85206 | -78.28120 | 26711 ft | 364 kts | 270° |
| 2026-05-06 02:23 | 38.85202 | -78.31379 | 27188 ft | 367 kts | 270° |
| 2026-05-06 02:23 | 38.85194 | -78.34647 | 27611 ft | 370 kts | 270° |
| 2026-05-06 02:23 | 38.85062 | -78.37955 | 28008 ft | 373 kts | 262° |
| 2026-05-06 02:23 | 38.84549 | -78.41259 | 28115 ft | 384 kts | 260° |
| 2026-05-06 02:24 | 38.83999 | -78.44679 | 28138 ft | 395 kts | 260° |
| 2026-05-06 02:24 | 38.83434 | -78.48169 | 28305 ft | 402 kts | 260° |
| 2026-05-06 02:24 | 38.82864 | -78.51665 | 28759 ft | 402 kts | 260° |
| 2026-05-06 02:24 | 38.82294 | -78.55168 | 29341 ft | 399 kts | 260° |
| 2026-05-06 02:25 | 38.81727 | -78.58631 | 29941 ft | 395 kts | 260° |
| 2026-05-06 02:25 | 38.81164 | -78.62071 | 30489 ft | 391 kts | 261° |
| 2026-05-06 02:25 | 38.80613 | -78.65422 | 31039 ft | 387 kts | 262° |
| 2026-05-06 02:25 | 38.80059 | -78.68781 | 31563 ft | 382 kts | 262° |
| 2026-05-06 02:26 | 38.79514 | -78.72087 | 32138 ft | 377 kts | 263° |
| 2026-05-06 02:26 | 38.78971 | -78.75368 | 32605 ft | 375 kts | 264° |
| 2026-05-06 02:26 | 38.78432 | -78.78619 | 33056 ft | 372 kts | 264° |
| 2026-05-06 02:26 | 38.77894 | -78.81851 | 33473 ft | 369 kts | 265° |
| 2026-05-06 02:27 | 38.77361 | -78.85053 | 33973 ft | 365 kts | 265° |
| 2026-05-06 02:27 | 38.76832 | -78.88223 | 34332 ft | 363 kts | 265° |
| 2026-05-06 02:27 | 38.76304 | -78.91386 | 34646 ft | 363 kts | 265° |
| 2026-05-06 02:27 | 38.75776 | -78.94555 | 34935 ft | 363 kts | 265° |
| 2026-05-06 02:28 | 38.75244 | -78.97708 | 35321 ft | 361 kts | 265° |
| 2026-05-06 02:28 | 38.74639 | -79.00838 | 35629 ft | 359 kts | 266° |
| 2026-05-06 02:28 | 38.74182 | -79.03974 | 35898 ft | 358 kts | 266° |
| 2026-05-06 02:29 | 38.73223 | -79.10154 | 35942 ft | 359 kts | 266° |
| 2026-05-06 02:29 | 38.72186 | -79.16485 | 35966 ft | 368 kts | 265° |
| 2026-05-06 02:30 | 38.71104 | -79.22911 | 35932 ft | 370 kts | 265° |
| 2026-05-06 02:30 | 38.70030 | -79.29365 | 35955 ft | 371 kts | 265° |
| 2026-05-06 02:31 | 38.68971 | -79.35828 | 35909 ft | 370 kts | 265° |
| 2026-05-06 02:31 | 38.67908 | -79.42264 | 35865 ft | 371 kts | 265° |
| 2026-05-06 02:32 | 38.66845 | -79.48690 | 35928 ft | 369 kts | 265° |
| 2026-05-06 02:32 | 38.65779 | -79.55070 | 35924 ft | 370 kts | 265° |
| 2026-05-06 02:33 | 38.64703 | -79.61504 | 35906 ft | 370 kts | 265° |
| 2026-05-06 02:33 | 38.64336 | -79.63675 | 35940 ft | 369 kts | 265° |
| 2026-05-06 02:34 | 38.62481 | -79.74399 | 35931 ft | 372 kts | 264° |
| 2026-05-06 02:34 | 38.61333 | -79.80787 | 35923 ft | 370 kts | 264° |
| 2026-05-06 02:35 | 38.60221 | -79.86949 | 35937 ft | 369 kts | 264° |
| 2026-05-06 02:35 | 38.59096 | -79.93200 | 35931 ft | 368 kts | 264° |
| 2026-05-06 02:36 | 38.57940 | -79.99590 | 35936 ft | 369 kts | 264° |
| 2026-05-06 02:36 | 38.56786 | -80.05941 | 35924 ft | 368 kts | 264° |
| 2026-05-06 02:37 | 38.55627 | -80.12298 | 35884 ft | 368 kts | 264° |
| 2026-05-06 02:37 | 38.54466 | -80.18612 | 35865 ft | 369 kts | 264° |
| 2026-05-06 02:38 | 38.53314 | -80.24784 | 35897 ft | 368 kts | 264° |
| 2026-05-06 02:38 | 38.52331 | -80.30034 | 35938 ft | 367 kts | 264° |
| 2026-05-06 02:39 | 38.51156 | -80.36392 | 35930 ft | 367 kts | 264° |
| 2026-05-06 02:39 | 38.49975 | -80.42729 | 35882 ft | 368 kts | 264° |
| 2026-05-06 02:40 | 38.48779 | -80.49087 | 35909 ft | 369 kts | 264° |
| 2026-05-06 02:40 | 38.47582 | -80.55465 | 35887 ft | 368 kts | 263° |
| 2026-05-06 02:41 | 38.46415 | -80.61667 | 35904 ft | 367 kts | 263° |
| 2026-05-06 02:41 | 38.45240 | -80.67877 | 35897 ft | 367 kts | 263° |
| 2026-05-06 02:42 | 38.44038 | -80.74221 | 35881 ft | 368 kts | 263° |
| 2026-05-06 02:42 | 38.42843 | -80.80492 | 35882 ft | 367 kts | 263° |
| 2026-05-06 02:43 | 38.41669 | -80.86634 | 35878 ft | 368 kts | 263° |
| 2026-05-06 02:43 | 38.40494 | -80.92772 | 35870 ft | 364 kts | 263° |
| 2026-05-06 02:44 | 38.39354 | -80.98700 | 35884 ft | 361 kts | 263° |
| 2026-05-06 02:44 | 38.38197 | -81.04705 | 35879 ft | 362 kts | 263° |
| 2026-05-06 02:45 | 38.36992 | -81.10858 | 35866 ft | 363 kts | 262° |
| 2026-05-06 02:45 | 38.35494 | -81.17028 | 35875 ft | 365 kts | 260° |
| 2026-05-06 02:46 | 38.33996 | -81.23155 | 35875 ft | 365 kts | 260° |
| 2026-05-06 02:46 | 38.32519 | -81.29223 | 35892 ft | 365 kts | 260° |
| 2026-05-06 02:47 | 38.31035 | -81.35307 | 35865 ft | 363 kts | 261° |
| 2026-05-06 02:47 | 38.29558 | -81.41402 | 35868 ft | 364 kts | 260° |
| 2026-05-06 02:48 | 38.28090 | -81.47437 | 35869 ft | 363 kts | 260° |
| 2026-05-06 02:48 | 38.26605 | -81.53482 | 35848 ft | 364 kts | 260° |
| 2026-05-06 02:49 | 38.25126 | -81.59496 | 35841 ft | 363 kts | 260° |
| 2026-05-06 02:49 | 38.23642 | -81.65486 | 35873 ft | 365 kts | 260° |
| 2026-05-06 02:50 | 38.22156 | -81.71463 | 35873 ft | 363 kts | 260° |
| 2026-05-06 02:50 | 38.20520 | -81.77431 | 35874 ft | 365 kts | 258° |
| 2026-05-06 02:51 | 38.18810 | -81.83478 | 35865 ft | 363 kts | 258° |
| 2026-05-06 02:51 | 38.17144 | -81.89399 | 35875 ft | 363 kts | 258° |
| 2026-05-06 02:52 | 38.15458 | -81.95416 | 35862 ft | 364 kts | 258° |
| 2026-05-06 02:52 | 38.13753 | -82.01466 | 35857 ft | 364 kts | 258° |
| 2026-05-06 02:53 | 38.12066 | -82.07448 | 35857 ft | 364 kts | 258° |
| 2026-05-06 02:53 | 38.10366 | -82.13455 | 35863 ft | 363 kts | 258° |
| 2026-05-06 02:54 | 38.08676 | -82.19417 | 35863 ft | 364 kts | 258° |
| 2026-05-06 02:54 | 38.06971 | -82.25415 | 35860 ft | 363 kts | 258° |
| 2026-05-06 02:55 | 38.05254 | -82.31453 | 35857 ft | 364 kts | 258° |
| 2026-05-06 02:55 | 38.03546 | -82.37440 | 35861 ft | 364 kts | 258° |
| 2026-05-06 02:56 | 38.01835 | -82.43418 | 35853 ft | 360 kts | 258° |
| 2026-05-06 02:56 | 38.00123 | -82.49401 | 35860 ft | 361 kts | 257° |
| 2026-05-06 02:57 | 37.98452 | -82.55216 | 35844 ft | 362 kts | 257° |
| 2026-05-06 02:57 | 37.96760 | -82.61056 | 35882 ft | 361 kts | 257° |
| 2026-05-06 02:58 | 37.95018 | -82.67056 | 35904 ft | 363 kts | 257° |
| 2026-05-06 02:58 | 37.93275 | -82.73045 | 35882 ft | 363 kts | 257° |
| 2026-05-06 02:59 | 37.91535 | -82.79020 | 35872 ft | 363 kts | 257° |
| 2026-05-06 02:59 | 37.89789 | -82.84995 | 35877 ft | 363 kts | 257° |
| 2026-05-06 03:00 | 37.88007 | -82.90934 | 35874 ft | 363 kts | 257° |
| 2026-05-06 03:00 | 37.86222 | -82.96863 | 35867 ft | 362 kts | 257° |
| 2026-05-06 03:01 | 37.84433 | -83.02798 | 35859 ft | 362 kts | 257° |
| 2026-05-06 03:01 | 37.82646 | -83.08718 | 35865 ft | 363 kts | 257° |
| 2026-05-06 03:02 | 37.80879 | -83.14557 | 35875 ft | 363 kts | 257° |
| 2026-05-06 03:02 | 37.79109 | -83.20396 | 35884 ft | 362 kts | 256° |
| 2026-05-06 03:03 | 37.77319 | -83.26300 | 35886 ft | 361 kts | 257° |
| 2026-05-06 03:03 | 37.75627 | -83.32187 | 35911 ft | 362 kts | 257° |
| 2026-05-06 03:04 | 37.73902 | -83.38180 | 35896 ft | 362 kts | 257° |
| 2026-05-06 03:04 | 37.72202 | -83.44058 | 35869 ft | 362 kts | 257° |
| 2026-05-06 03:05 | 37.70462 | -83.50055 | 35866 ft | 362 kts | 257° |
| 2026-05-06 03:05 | 37.68736 | -83.55990 | 35851 ft | 360 kts | 257° |
| 2026-05-06 03:06 | 37.67035 | -83.61822 | 35854 ft | 359 kts | 257° |
| 2026-05-06 03:06 | 37.65322 | -83.67689 | 35866 ft | 359 kts | 257° |
| 2026-05-06 03:07 | 37.63653 | -83.73392 | 35855 ft | 359 kts | 257° |
| 2026-05-06 03:07 | 37.61922 | -83.79288 | 35857 ft | 359 kts | 257° |
| 2026-05-06 03:08 | 37.60213 | -83.85098 | 35851 ft | 359 kts | 257° |
| 2026-05-06 03:08 | 37.58482 | -83.90968 | 35862 ft | 359 kts | 257° |
| 2026-05-06 03:09 | 37.56766 | -83.96771 | 35878 ft | 355 kts | 257° |
| 2026-05-06 03:09 | 37.55064 | -84.02526 | 35882 ft | 356 kts | 257° |
| 2026-05-06 03:10 | 37.53377 | -84.08223 | 35884 ft | 358 kts | 257° |
| 2026-05-06 03:10 | 37.51663 | -84.13990 | 35887 ft | 358 kts | 257° |
| 2026-05-06 03:11 | 37.49962 | -84.19700 | 35889 ft | 357 kts | 257° |
| 2026-05-06 03:11 | 37.48230 | -84.25494 | 35903 ft | 358 kts | 257° |
| 2026-05-06 03:12 | 37.46429 | -84.31282 | 35894 ft | 355 kts | 256° |
| 2026-05-06 03:12 | 37.44613 | -84.37056 | 35887 ft | 356 kts | 256° |
| 2026-05-06 03:13 | 37.42793 | -84.42855 | 35864 ft | 355 kts | 256° |
| 2026-05-06 03:13 | 37.40980 | -84.48623 | 35857 ft | 356 kts | 256° |
| 2026-05-06 03:14 | 37.39172 | -84.54362 | 35866 ft | 356 kts | 256° |
| 2026-05-06 03:14 | 37.37349 | -84.60134 | 35872 ft | 355 kts | 256° |
| 2026-05-06 03:15 | 37.35529 | -84.65897 | 35837 ft | 356 kts | 256° |
| 2026-05-06 03:15 | 37.33707 | -84.71655 | 35872 ft | 355 kts | 256° |
| 2026-05-06 03:16 | 37.31875 | -84.77428 | 35869 ft | 355 kts | 256° |
| 2026-05-06 03:16 | 37.30085 | -84.83081 | 35864 ft | 355 kts | 256° |
| 2026-05-06 03:17 | 37.28261 | -84.88830 | 35849 ft | 355 kts | 256° |
| 2026-05-06 03:17 | 37.26427 | -84.94602 | 35859 ft | 355 kts | 256° |
| 2026-05-06 03:18 | 37.24646 | -85.00194 | 35848 ft | 355 kts | 256° |
| 2026-05-06 03:18 | 37.22814 | -85.05936 | 35860 ft | 353 kts | 256° |
| 2026-05-06 03:19 | 37.21025 | -85.11571 | 35856 ft | 349 kts | 258° |
| 2026-05-06 03:19 | 37.19799 | -85.17358 | 35856 ft | 348 kts | 261° |
| 2026-05-06 03:20 | 37.17967 | -85.26050 | 35850 ft | 347 kts | 261° |
| 2026-05-06 03:20 | 37.16784 | -85.31725 | 35849 ft | 346 kts | 261° |
| 2026-05-06 03:21 | 37.15568 | -85.37573 | 35850 ft | 347 kts | 261° |
| 2026-05-06 03:21 | 37.14357 | -85.43394 | 35853 ft | 346 kts | 261° |
| 2026-05-06 03:22 | 37.13351 | -85.48218 | 35850 ft | 346 kts | 261° |
| 2026-05-06 03:22 | 37.11936 | -85.54991 | 35855 ft | 346 kts | 261° |
| 2026-05-06 03:23 | 37.10916 | -85.59861 | 35858 ft | 346 kts | 261° |
| 2026-05-06 03:23 | 37.09691 | -85.65689 | 35843 ft | 346 kts | 261° |
| 2026-05-06 03:24 | 37.08468 | -85.71504 | 35850 ft | 346 kts | 261° |
| 2026-05-06 03:24 | 37.07247 | -85.77288 | 35847 ft | 346 kts | 261° |
| 2026-05-06 03:25 | 37.06060 | -85.82906 | 35855 ft | 346 kts | 261° |
| 2026-05-06 03:25 | 37.04847 | -85.88622 | 35851 ft | 346 kts | 261° |
| 2026-05-06 03:26 | 37.03617 | -85.94405 | 35849 ft | 346 kts | 261° |
| 2026-05-06 03:26 | 37.02383 | -86.00189 | 35847 ft | 346 kts | 261° |
| 2026-05-06 03:27 | 37.01150 | -86.05958 | 35858 ft | 346 kts | 261° |
| 2026-05-06 03:27 | 36.99902 | -86.11780 | 35848 ft | 346 kts | 261° |
| 2026-05-06 03:28 | 36.98649 | -86.17610 | 35854 ft | 346 kts | 261° |
| 2026-05-06 03:28 | 36.97397 | -86.23411 | 35850 ft | 345 kts | 260° |
| 2026-05-06 03:29 | 36.96148 | -86.29194 | 35843 ft | 345 kts | 260° |
| 2026-05-06 03:29 | 36.94894 | -86.34982 | 35840 ft | 345 kts | 260° |
| 2026-05-06 03:30 | 36.93670 | -86.40630 | 35813 ft | 345 kts | 261° |
| 2026-05-06 03:30 | 36.92045 | -86.46341 | 35862 ft | 355 kts | 253° |
| 2026-05-06 03:31 | 36.90129 | -86.51832 | 35842 ft | 354 kts | 254° |
| 2026-05-06 03:31 | 36.88216 | -86.57262 | 35846 ft | 354 kts | 253° |
| 2026-05-06 03:32 | 36.86275 | -86.62688 | 35840 ft | 352 kts | 253° |
| 2026-05-06 03:32 | 36.84304 | -86.68178 | 35838 ft | 352 kts | 253° |
| 2026-05-06 03:33 | 36.82387 | -86.73508 | 35835 ft | 352 kts | 253° |
| 2026-05-06 03:33 | 36.80396 | -86.79029 | 35834 ft | 352 kts | 253° |
| 2026-05-06 03:34 | 36.78454 | -86.84404 | 35833 ft | 352 kts | 253° |
| 2026-05-06 03:34 | 36.76456 | -86.89924 | 35829 ft | 352 kts | 252° |
| 2026-05-06 03:35 | 36.74480 | -86.95374 | 35815 ft | 352 kts | 252° |
| 2026-05-06 03:35 | 36.72479 | -87.00884 | 35826 ft | 351 kts | 252° |
| 2026-05-06 03:36 | 36.70484 | -87.06367 | 35836 ft | 351 kts | 252° |
| 2026-05-06 03:36 | 36.68495 | -87.11824 | 35820 ft | 352 kts | 252° |
| 2026-05-06 03:37 | 36.66470 | -87.17371 | 35822 ft | 351 kts | 252° |
| 2026-05-06 03:37 | 36.64485 | -87.22797 | 35831 ft | 351 kts | 252° |
| 2026-05-06 03:38 | 36.62504 | -87.28203 | 35835 ft | 351 kts | 252° |
| 2026-05-06 03:38 | 36.60466 | -87.33749 | 35831 ft | 351 kts | 252° |
| 2026-05-06 03:39 | 36.58497 | -87.39082 | 35836 ft | 351 kts | 252° |
| 2026-05-06 03:39 | 36.56465 | -87.44579 | 35852 ft | 350 kts | 252° |
| 2026-05-06 03:40 | 36.54506 | -87.49870 | 35831 ft | 350 kts | 252° |
| 2026-05-06 03:40 | 36.52462 | -87.55379 | 35845 ft | 350 kts | 252° |
| 2026-05-06 03:41 | 36.50498 | -87.60667 | 35840 ft | 350 kts | 252° |
| 2026-05-06 03:41 | 36.48487 | -87.66068 | 35840 ft | 351 kts | 252° |
| 2026-05-06 03:42 | 36.46469 | -87.71476 | 35830 ft | 349 kts | 252° |
| 2026-05-06 03:42 | 36.44497 | -87.76759 | 35830 ft | 344 kts | 252° |
| 2026-05-06 03:43 | 36.42482 | -87.82150 | 35836 ft | 345 kts | 252° |
| 2026-05-06 03:43 | 36.40506 | -87.87423 | 35819 ft | 344 kts | 252° |
| 2026-05-06 03:44 | 36.38532 | -87.92684 | 35819 ft | 345 kts | 251° |
| 2026-05-06 03:44 | 36.36517 | -87.98046 | 35819 ft | 344 kts | 251° |
| 2026-05-06 03:45 | 36.34528 | -88.03327 | 35815 ft | 344 kts | 251° |
| 2026-05-06 03:45 | 36.32517 | -88.08656 | 35817 ft | 344 kts | 251° |
| 2026-05-06 03:46 | 36.30480 | -88.14048 | 35818 ft | 345 kts | 251° |
| 2026-05-06 03:46 | 36.28466 | -88.19369 | 35815 ft | 345 kts | 251° |
| 2026-05-06 03:47 | 36.26432 | -88.24732 | 35818 ft | 345 kts | 251° |
| 2026-05-06 03:47 | 36.24430 | -88.30006 | 35816 ft | 345 kts | 251° |
| 2026-05-06 03:48 | 36.22366 | -88.35435 | 35818 ft | 354 kts | 251° |
| 2026-05-06 03:48 | 36.20282 | -88.40903 | 35828 ft | 357 kts | 251° |
| 2026-05-06 03:49 | 36.18155 | -88.46470 | 35825 ft | 358 kts | 250° |
| 2026-05-06 03:49 | 36.16049 | -88.51970 | 35826 ft | 351 kts | 251° |
| 2026-05-06 03:50 | 36.13993 | -88.57342 | 35826 ft | 352 kts | 250° |
| 2026-05-06 03:50 | 36.11884 | -88.62778 | 35823 ft | 352 kts | 250° |
| 2026-05-06 03:51 | 36.09765 | -88.68233 | 35818 ft | 352 kts | 250° |
| 2026-05-06 03:51 | 36.07655 | -88.73663 | 35814 ft | 352 kts | 250° |
| 2026-05-06 03:52 | 36.05536 | -88.79107 | 35814 ft | 352 kts | 250° |
| 2026-05-06 03:52 | 36.03432 | -88.84502 | 35811 ft | 352 kts | 250° |
| 2026-05-06 03:53 | 36.01383 | -88.89740 | 35805 ft | 343 kts | 250° |
| 2026-05-06 03:53 | 35.99306 | -88.95056 | 35821 ft | 344 kts | 250° |
| 2026-05-06 03:54 | 35.97273 | -89.00245 | 35816 ft | 344 kts | 250° |
| 2026-05-06 03:54 | 35.95203 | -89.05521 | 35815 ft | 344 kts | 250° |
| 2026-05-06 03:55 | 35.93167 | -89.10700 | 35817 ft | 344 kts | 250° |
| 2026-05-06 03:55 | 35.91076 | -89.16012 | 35815 ft | 344 kts | 250° |
| 2026-05-06 03:56 | 35.88992 | -89.21294 | 35818 ft | 344 kts | 250° |
| 2026-05-06 03:56 | 35.86899 | -89.26590 | 35812 ft | 342 kts | 250° |
| 2026-05-06 03:57 | 35.84891 | -89.31667 | 35814 ft | 342 kts | 250° |
| 2026-05-06 03:57 | 35.82845 | -89.36830 | 35815 ft | 342 kts | 250° |
| 2026-05-06 03:58 | 35.80808 | -89.41964 | 35820 ft | 342 kts | 250° |
| 2026-05-06 03:58 | 35.78762 | -89.47109 | 35818 ft | 342 kts | 250° |
| 2026-05-06 03:59 | 35.76708 | -89.52269 | 35814 ft | 342 kts | 250° |
| 2026-05-06 03:59 | 35.74626 | -89.57497 | 35514 ft | 351 kts | 249° |
| 2026-05-06 04:00 | 35.73540 | -89.60228 | 35245 ft | 356 kts | 249° |
| 2026-05-06 04:00 | 35.72457 | -89.62944 | 34999 ft | 358 kts | 249° |
| 2026-05-06 04:00 | 35.71373 | -89.65657 | 34833 ft | 357 kts | 249° |
| 2026-05-06 04:00 | 35.70274 | -89.68401 | 34903 ft | 358 kts | 249° |
| 2026-05-06 04:01 | 35.68061 | -89.73922 | 34725 ft | 362 kts | 249° |
| 2026-05-06 04:01 | 35.66953 | -89.76693 | 34483 ft | 363 kts | 249° |
| 2026-05-06 04:01 | 35.65851 | -89.79447 | 34247 ft | 365 kts | 249° |
| 2026-05-06 04:02 | 35.64752 | -89.82189 | 34019 ft | 367 kts | 248° |
| 2026-05-06 04:02 | 35.63717 | -89.84772 | 33804 ft | 369 kts | 248° |
| 2026-05-06 04:02 | 35.62634 | -89.87473 | 33563 ft | 371 kts | 248° |
| 2026-05-06 04:02 | 35.61538 | -89.90198 | 33290 ft | 365 kts | 248° |
| 2026-05-06 04:03 | 35.60490 | -89.92795 | 33057 ft | 358 kts | 248° |
| 2026-05-06 04:03 | 35.59446 | -89.95388 | 32816 ft | 356 kts | 248° |
| 2026-05-06 04:03 | 35.58364 | -89.98082 | 32559 ft | 359 kts | 248° |
| 2026-05-06 04:03 | 35.57264 | -90.00817 | 32308 ft | 359 kts | 248° |
| 2026-05-06 04:04 | 35.56180 | -90.03506 | 32072 ft | 359 kts | 248° |
| 2026-05-06 04:04 | 35.55100 | -90.06186 | 31838 ft | 361 kts | 248° |
| 2026-05-06 04:04 | 35.54023 | -90.08854 | 31593 ft | 363 kts | 248° |
| 2026-05-06 04:04 | 35.52919 | -90.11587 | 31353 ft | 365 kts | 248° |
| 2026-05-06 04:05 | 35.51788 | -90.14387 | 31114 ft | 366 kts | 248° |
| 2026-05-06 04:05 | 35.50672 | -90.17152 | 30878 ft | 368 kts | 248° |
| 2026-05-06 04:05 | 35.49526 | -90.19979 | 30616 ft | 372 kts | 248° |
| 2026-05-06 04:05 | 35.48369 | -90.22837 | 30382 ft | 375 kts | 248° |
| 2026-05-06 04:06 | 35.47211 | -90.25698 | 30149 ft | 377 kts | 248° |
| 2026-05-06 04:06 | 35.46040 | -90.28583 | 29918 ft | 378 kts | 248° |
| 2026-05-06 04:06 | 35.44886 | -90.31428 | 29658 ft | 379 kts | 248° |
| 2026-05-06 04:06 | 35.43706 | -90.34310 | 29437 ft | 382 kts | 246° |
| 2026-05-06 04:07 | 35.42479 | -90.37212 | 28885 ft | 383 kts | 248° |
| 2026-05-06 04:07 | 35.41307 | -90.40128 | 28358 ft | 379 kts | 248° |
| 2026-05-06 04:07 | 35.40152 | -90.43015 | 27846 ft | 375 kts | 248° |
| 2026-05-06 04:07 | 35.39001 | -90.45878 | 27357 ft | 372 kts | 248° |
| 2026-05-06 04:08 | 35.37869 | -90.48675 | 26869 ft | 369 kts | 248° |
| 2026-05-06 04:08 | 35.36732 | -90.51484 | 26394 ft | 366 kts | 248° |
| 2026-05-06 04:08 | 35.35617 | -90.54232 | 25928 ft | 363 kts | 248° |
| 2026-05-06 04:08 | 35.34490 | -90.56995 | 25454 ft | 361 kts | 248° |
| 2026-05-06 04:09 | 35.33381 | -90.59725 | 24994 ft | 358 kts | 248° |
| 2026-05-06 04:09 | 35.32274 | -90.62453 | 24532 ft | 356 kts | 248° |
| 2026-05-06 04:09 | 35.31177 | -90.65151 | 24075 ft | 353 kts | 248° |
| 2026-05-06 04:09 | 35.30081 | -90.67833 | 23618 ft | 351 kts | 248° |
| 2026-05-06 04:10 | 35.28989 | -90.70496 | 23137 ft | 348 kts | 248° |
| 2026-05-06 04:10 | 35.27907 | -90.73130 | 22724 ft | 345 kts | 248° |
| 2026-05-06 04:10 | 35.26836 | -90.75744 | 22275 ft | 343 kts | 248° |
| 2026-05-06 04:10 | 35.25780 | -90.78330 | 21845 ft | 341 kts | 247° |
| 2026-05-06 04:11 | 35.24719 | -90.80923 | 21411 ft | 339 kts | 247° |
| 2026-05-06 04:11 | 35.24016 | -90.82626 | 21114 ft | 337 kts | 248° |
| 2026-05-06 04:11 | 35.22965 | -90.85171 | 20702 ft | 335 kts | 248° |
| 2026-05-06 04:11 | 35.21601 | -90.88488 | 20160 ft | 332 kts | 248° |
| 2026-05-06 04:12 | 35.20899 | -90.90194 | 19886 ft | 331 kts | 247° |
| 2026-05-06 04:12 | 35.19932 | -90.92548 | 19503 ft | 330 kts | 247° |
| 2026-05-06 04:12 | 35.18933 | -90.94980 | 19110 ft | 328 kts | 247° |
| 2026-05-06 04:12 | 35.17966 | -90.97326 | 18732 ft | 326 kts | 247° |
| 2026-05-06 04:13 | 35.16959 | -90.99772 | 18341 ft | 325 kts | 247° |
| 2026-05-06 04:13 | 35.15964 | -91.02176 | 17918 ft | 324 kts | 247° |
| 2026-05-06 04:13 | 35.14999 | -91.04512 | 17569 ft | 320 kts | 247° |
| 2026-05-06 04:13 | 35.14047 | -91.06814 | 17187 ft | 318 kts | 246° |
| 2026-05-06 04:14 | 35.13087 | -91.09129 | 16812 ft | 315 kts | 246° |
| 2026-05-06 04:14 | 35.12125 | -91.11450 | 16441 ft | 313 kts | 246° |
| 2026-05-06 04:14 | 35.11148 | -91.13811 | 16058 ft | 310 kts | 247° |
| 2026-05-06 04:14 | 35.10185 | -91.16158 | 15856 ft | 305 kts | 246° |
| 2026-05-06 04:15 | 35.09251 | -91.18437 | 15495 ft | 311 kts | 246° |
| 2026-05-06 04:15 | 35.08330 | -91.20652 | 15147 ft | 306 kts | 246° |
| 2026-05-06 04:15 | 35.07394 | -91.22971 | 14852 ft | 301 kts | 249° |
| 2026-05-06 04:15 | 35.06724 | -91.25318 | 14596 ft | 286 kts | 253° |
| 2026-05-06 04:16 | 35.06115 | -91.27564 | 14348 ft | 272 kts | 253° |
| 2026-05-06 04:16 | 35.05541 | -91.29704 | 14121 ft | 259 kts | 253° |
| 2026-05-06 04:16 | 35.04990 | -91.31742 | 13907 ft | 248 kts | 253° |
| 2026-05-06 04:16 | 35.04454 | -91.33718 | 13684 ft | 244 kts | 253° |
| 2026-05-06 04:17 | 35.03921 | -91.35680 | 13450 ft | 243 kts | 253° |
| 2026-05-06 04:17 | 35.03387 | -91.37646 | 13191 ft | 245 kts | 253° |
| 2026-05-06 04:17 | 35.02852 | -91.39602 | 12946 ft | 246 kts | 253° |
| 2026-05-06 04:17 | 35.02327 | -91.41523 | 12691 ft | 247 kts | 253° |
| 2026-05-06 04:18 | 35.01781 | -91.43508 | 12441 ft | 246 kts | 253° |
| 2026-05-06 04:18 | 35.01236 | -91.45490 | 12191 ft | 246 kts | 253° |
| 2026-05-06 04:18 | 35.00692 | -91.47471 | 11938 ft | 246 kts | 253° |
| 2026-05-06 04:18 | 35.00149 | -91.49441 | 11698 ft | 246 kts | 253° |
| 2026-05-06 04:19 | 34.99604 | -91.51419 | 11451 ft | 246 kts | 253° |
| 2026-05-06 04:19 | 34.99082 | -91.53308 | 11213 ft | 246 kts | 253° |
| 2026-05-06 04:19 | 34.98536 | -91.55292 | 10970 ft | 247 kts | 253° |
| 2026-05-06 04:19 | 34.97990 | -91.57264 | 10709 ft | 249 kts | 253° |
| 2026-05-06 04:20 | 34.97434 | -91.59277 | 10474 ft | 251 kts | 253° |
| 2026-05-06 04:20 | 34.96876 | -91.61292 | 10367 ft | 247 kts | 253° |
| 2026-05-06 04:20 | 34.96320 | -91.63281 | 10277 ft | 248 kts | 253° |
| 2026-05-06 04:20 | 34.95777 | -91.65251 | 10296 ft | 248 kts | 253° |
| 2026-05-06 04:21 | 34.95232 | -91.67262 | 9973 ft | 257 kts | 253° |
| 2026-05-06 04:21 | 34.94663 | -91.69354 | 9382 ft | 261 kts | 253° |
| 2026-05-06 04:21 | 34.94113 | -91.71350 | 9033 ft | 254 kts | 253° |
| 2026-05-06 04:21 | 34.93576 | -91.73286 | 8687 ft | 248 kts | 253° |
| 2026-05-06 04:22 | 34.93032 | -91.75246 | 8382 ft | 243 kts | 252° |
| 2026-05-06 04:22 | 34.92498 | -91.77166 | 8068 ft | 242 kts | 252° |
| 2026-05-06 04:22 | 34.91955 | -91.79111 | 7759 ft | 243 kts | 252° |
| 2026-05-06 04:23 | 34.90861 | -91.83028 | 7111 ft | 244 kts | 252° |
| 2026-05-06 04:23 | 34.90313 | -91.84985 | 6781 ft | 243 kts | 252° |
| 2026-05-06 04:23 | 34.89769 | -91.86920 | 6446 ft | 239 kts | 252° |
| 2026-05-06 04:23 | 34.89246 | -91.88786 | 6150 ft | 234 kts | 252° |
| 2026-05-06 04:24 | 34.88748 | -91.90559 | 5851 ft | 230 kts | 251° |
| 2026-05-06 04:24 | 34.88251 | -91.92332 | 5561 ft | 225 kts | 251° |
| 2026-05-06 04:24 | 34.87746 | -91.94125 | 5267 ft | 222 kts | 251° |
| 2026-05-06 04:24 | 34.87252 | -91.95880 | 4977 ft | 219 kts | 250° |
| 2026-05-06 04:25 | 34.86764 | -91.97614 | 4698 ft | 216 kts | 250° |
| 2026-05-06 04:25 | 34.86280 | -91.99329 | 4408 ft | 214 kts | 250° |
| 2026-05-06 04:25 | 34.85799 | -92.01033 | 4131 ft | 211 kts | 250° |
| 2026-05-06 04:25 | 34.85353 | -92.02615 | 3842 ft | 202 kts | 249° |
| 2026-05-06 04:26 | 34.84934 | -92.04098 | 3597 ft | 190 kts | 249° |
| 2026-05-06 04:26 | 34.84260 | -92.05413 | 3354 ft | 177 kts | 230° |
| 2026-05-06 04:26 | 34.83479 | -92.06499 | 3181 ft | 166 kts | 231° |
| 2026-05-06 04:26 | 34.82766 | -92.07504 | 2946 ft | 163 kts | 230° |
| 2026-05-06 04:27 | 34.82075 | -92.08473 | 2738 ft | 158 kts | 229° |
| 2026-05-06 04:27 | 34.81366 | -92.09455 | 2641 ft | 150 kts | 228° |
| 2026-05-06 04:27 | 34.80643 | -92.10397 | 2443 ft | 156 kts | 227° |
| 2026-05-06 04:27 | 34.79879 | -92.11387 | 2002 ft | 163 kts | 227° |
| 2026-05-06 04:28 | 34.79109 | -92.12386 | 1733 ft | 156 kts | 226° |
| 2026-05-06 04:28 | 34.78448 | -92.13411 | 1616 ft | 153 kts | 233° |
| 2026-05-06 04:28 | 34.77873 | -92.14416 | 1484 ft | 138 kts | 230° |
| 2026-05-06 04:28 | 34.77273 | -92.15277 | 1322 ft | 128 kts | 229° |
| 2026-05-06 04:29 | 34.76842 | -92.15853 | 1198 ft | 123 kts | 224° |
| 2026-05-06 04:29 | 34.76619 | -92.16130 | 1141 ft | 125 kts | 225° |
| 2026-05-06 04:30 | 34.76368 | -92.16436 | 1068 ft | 129 kts | 224° |
| 2026-05-06 04:30 | 34.75760 | -92.17260 | 951 ft | 133 kts | 225° |
| 2026-05-06 04:30 | 34.75105 | -92.18077 | 797 ft | 140 kts | 226° |
| 2026-05-06 04:30 | 34.74439 | -92.18925 | 566 ft | 138 kts | 225° |
| 2026-05-06 04:31 | 34.73780 | -92.19766 | 373 ft | 136 kts | 226° |
| 2026-05-06 04:31 | 34.73140 | -92.20589 | 261 ft | 125 kts | 226° |
| 2026-05-06 04:31 | 34.72643 | -92.21223 | 261 ft | 72 kts | 226° |
| 2026-05-06 04:31 | 34.72438 | -92.21544 | 262 ft | 27 kts | 246° |
| 2026-05-06 04:32 | 34.72420 | -92.21677 | 263 ft | 13 kts | 304° |
| 2026-05-06 04:32 | 34.72484 | -92.21682 | 264 ft | 10 kts | 44° |
| 2026-05-06 04:32 | 34.72536 | -92.21613 | 264 ft | 13 kts | 47° |
| 2026-05-06 04:32 | 34.72548 | -92.21599 | 264 ft | 13 kts | 47° |
| 2026-05-06 04:34 | 34.72552 | -92.21594 | 264 ft | 13 kts | 47° |
| 2026-05-06 04:34 | 34.72623 | -92.21505 | 264 ft | 16 kts | 46° |
| 2026-05-06 04:34 | 34.72709 | -92.21395 | 264 ft | 19 kts | 46° |
| 2026-05-06 04:34 | 34.72789 | -92.21298 | 264 ft | 13 kts | 22° |
| 2026-05-06 04:35 | 34.72855 | -92.21353 | 264 ft | 14 kts | 295° |
| 2026-05-06 04:35 | 34.72878 | -92.21417 | 265 ft | 15 kts | 294° |
| 2026-05-06 04:36 | 34.72898 | -92.21470 | 265 ft | 16 kts | 294° |
| 2026-05-06 04:36 | 34.72949 | -92.21608 | 265 ft | 19 kts | 294° |
| 2026-05-06 04:36 | 34.72998 | -92.21741 | 267 ft | 19 kts | 294° |
| 2026-05-06 04:36 | 34.73008 | -92.21769 | 266 ft | 19 kts | 294° |
| 2026-05-06 04:37 | 34.72998 | -92.21846 | 265 ft | 9 kts | 217° |
| 2026-05-06 04:37 | 34.72942 | -92.21896 | 265 ft | 10 kts | 216° |
| 2026-05-06 04:37 | 34.72926 | -92.21963 | 265 ft | 7 kts | 294° |
| 2026-05-06 04:37 | 34.72930 | -92.21973 | 265 ft | 0 kts | 294° |